sensor_id;sensor_type;location;lat;lon;timestamp;pressure;altitude;pressure_sealevel;temperature;humidity
22755;BME280;11544;42.020;23.094;2023-04-09T00:01:11;97414.53;;;7.51;95.66
22755;BME280;11544;42.020;23.094;2023-04-09T00:03:38;97414.84;;;7.76;96.06
22755;BME280;11544;42.020;23.094;2023-04-09T00:06:06;97419.50;;;7.15;98.86
22755;BME280;11544;42.020;23.094;2023-04-09T00:08:33;97423.53;;;6.84;100.00
22755;BME280;11544;42.020;23.094;2023-04-09T00:10:59;97420.38;;;7.16;100.00
22755;BME280;11544;42.020;23.094;2023-04-09T00:13:27;97426.75;;;7.45;100.00
22755;BME280;11544;42.020;23.094;2023-04-09T00:15:57;97431.84;;;7.49;100.00
22755;BME280;11544;42.020;23.094;2023-04-09T00:18:24;97425.44;;;7.22;100.00
22755;BME280;11544;42.020;23.094;2023-04-09T00:20:51;97421.16;;;7.19;100.00
22755;BME280;11544;42.020;23.094;2023-04-09T00:23:18;97424.81;;;7.09;100.00
22755;BME280;11544;42.020;23.094;2023-04-09T00:25:46;97422.50;;;7.40;100.00
22755;BME280;11544;42.020;23.094;2023-04-09T00:28:13;97413.03;;;7.39;98.27
22755;BME280;11544;42.020;23.094;2023-04-09T00:30:39;97409.19;;;7.14;97.44
22755;BME280;11544;42.020;23.094;2023-04-09T00:33:06;97416.69;;;7.28;98.08
22755;BME280;11544;42.020;23.094;2023-04-09T00:35:33;97421.75;;;7.34;96.87
22755;BME280;11544;42.020;23.094;2023-04-09T00:38:01;97414.91;;;6.83;97.98
22755;BME280;11544;42.020;23.094;2023-04-09T00:40:28;97417.31;;;6.94;97.79
22755;BME280;11544;42.020;23.094;2023-04-09T00:42:55;97423.06;;;7.10;97.49
22755;BME280;11544;42.020;23.094;2023-04-09T00:45:25;97417.66;;;7.22;96.75
22755;BME280;11544;42.020;23.094;2023-04-09T00:47:53;97413.22;;;7.27;95.65
22755;BME280;11544;42.020;23.094;2023-04-09T00:50:20;97418.91;;;7.46;94.91
22755;BME280;11544;42.020;23.094;2023-04-09T00:52:47;97414.31;;;7.17;94.19
22755;BME280;11544;42.020;23.094;2023-04-09T00:55:15;97413.03;;;6.91;95.70
22755;BME280;11544;42.020;23.094;2023-04-09T00:57:43;97409.41;;;7.02;95.30
22755;BME280;11544;42.020;23.094;2023-04-09T01:00:11;97404.09;;;7.09;95.27
22755;BME280;11544;42.020;23.094;2023-04-09T01:02:39;97406.38;;;6.76;96.04
22755;BME280;11544;42.020;23.094;2023-04-09T01:05:07;97405.78;;;7.10;97.59
22755;BME280;11544;42.020;23.094;2023-04-09T01:08:00;97404.09;;;7.08;95.70
22755;BME280;11544;42.020;23.094;2023-04-09T01:10:37;97410.00;;;7.61;94.10
22755;BME280;11544;42.020;23.094;2023-04-09T01:13:17;97408.44;;;7.52;92.67
22755;BME280;11544;42.020;23.094;2023-04-09T01:15:54;97418.28;;;7.35;94.17
22755;BME280;11544;42.020;23.094;2023-04-09T01:18:55;97416.38;;;6.96;96.36
22755;BME280;11544;42.020;23.094;2023-04-09T01:21:29;97414.13;;;7.28;95.87
22755;BME280;11544;42.020;23.094;2023-04-09T01:24:08;97414.72;;;7.40;94.87
22755;BME280;11544;42.020;23.094;2023-04-09T01:27:04;97411.81;;;7.56;93.57
22755;BME280;11544;42.020;23.094;2023-04-09T01:29:38;97410.38;;;7.84;91.94
22755;BME280;11544;42.020;23.094;2023-04-09T01:32:06;97409.34;;;7.92;90.28
22755;BME280;11544;42.020;23.094;2023-04-09T01:34:34;97413.09;;;7.77;93.35
22755;BME280;11544;42.020;23.094;2023-04-09T01:37:02;97413.16;;;7.32;94.94
22755;BME280;11544;42.020;23.094;2023-04-09T01:39:29;97416.81;;;7.21;98.45
22755;BME280;11544;42.020;23.094;2023-04-09T01:41:56;97420.81;;;7.38;99.69
22755;BME280;11544;42.020;23.094;2023-04-09T01:44:25;97418.97;;;7.45;99.19
22755;BME280;11544;42.020;23.094;2023-04-09T01:46:54;97413.47;;;7.60;99.13
22755;BME280;11544;42.020;23.094;2023-04-09T01:49:21;97410.00;;;7.61;99.79
22755;BME280;11544;42.020;23.094;2023-04-09T01:51:49;97409.72;;;7.30;99.81
22755;BME280;11544;42.020;23.094;2023-04-09T01:54:16;97401.75;;;6.94;100.00
22755;BME280;11544;42.020;23.094;2023-04-09T01:56:45;97406.19;;;6.87;100.00
22755;BME280;11544;42.020;23.094;2023-04-09T01:59:13;97405.41;;;7.30;100.00
22755;BME280;11544;42.020;23.094;2023-04-09T02:01:45;97402.69;;;7.36;99.98
22755;BME280;11544;42.020;23.094;2023-04-09T02:04:23;97402.44;;;7.49;97.43
22755;BME280;11544;42.020;23.094;2023-04-09T02:06:53;97386.84;;;7.92;95.55
22755;BME280;11544;42.020;23.094;2023-04-09T02:09:27;97389.16;;;7.64;92.84
22755;BME280;11544;42.020;23.094;2023-04-09T02:11:57;97390.00;;;7.66;90.49
22755;BME280;11544;42.020;23.094;2023-04-09T02:14:28;97393.16;;;7.37;91.17
22755;BME280;11544;42.020;23.094;2023-04-09T02:16:58;97388.88;;;7.36;93.78
22755;BME280;11544;42.020;23.094;2023-04-09T02:19:43;97390.72;;;7.31;95.85
22755;BME280;11544;42.020;23.094;2023-04-09T02:22:11;97385.94;;;7.53;95.20
22755;BME280;11544;42.020;23.094;2023-04-09T02:24:39;97392.22;;;7.41;96.51
22755;BME280;11544;42.020;23.094;2023-04-09T02:27:06;97386.03;;;7.03;99.95
22755;BME280;11544;42.020;23.094;2023-04-09T02:29:33;97389.97;;;7.22;100.00
22755;BME280;11544;42.020;23.094;2023-04-09T02:32:00;97398.16;;;7.48;99.45
22755;BME280;11544;42.020;23.094;2023-04-09T02:34:27;97397.31;;;7.47;99.07
22755;BME280;11544;42.020;23.094;2023-04-09T02:36:55;97397.91;;;7.15;100.00
22755;BME280;11544;42.020;23.094;2023-04-09T02:39:22;97396.31;;;7.08;99.98
22755;BME280;11544;42.020;23.094;2023-04-09T02:41:48;97393.28;;;7.31;100.00
22755;BME280;11544;42.020;23.094;2023-04-09T02:44:16;97391.63;;;7.28;100.00
22755;BME280;11544;42.020;23.094;2023-04-09T02:46:43;97393.78;;;7.51;100.00
22755;BME280;11544;42.020;23.094;2023-04-09T02:49:10;97391.94;;;7.55;100.00
22755;BME280;11544;42.020;23.094;2023-04-09T02:51:38;97393.16;;;7.79;100.00
22755;BME280;11544;42.020;23.094;2023-04-09T02:54:04;97394.56;;;7.10;100.00
22755;BME280;11544;42.020;23.094;2023-04-09T02:56:31;97392.88;;;7.09;100.00
22755;BME280;11544;42.020;23.094;2023-04-09T02:58:59;97388.28;;;7.21;100.00
22755;BME280;11544;42.020;23.094;2023-04-09T03:01:26;97401.75;;;7.40;100.00
22755;BME280;11544;42.020;23.094;2023-04-09T03:03:53;97384.88;;;7.19;100.00
22755;BME280;11544;42.020;23.094;2023-04-09T03:06:20;97387.00;;;6.97;100.00
22755;BME280;11544;42.020;23.094;2023-04-09T03:08:47;97392.63;;;6.73;100.00
22755;BME280;11544;42.020;23.094;2023-04-09T03:11:14;97393.19;;;6.90;100.00
22755;BME280;11544;42.020;23.094;2023-04-09T03:13:44;97389.47;;;7.49;100.00
22755;BME280;11544;42.020;23.094;2023-04-09T03:16:11;97377.13;;;7.60;100.00
22755;BME280;11544;42.020;23.094;2023-04-09T03:18:39;97384.06;;;7.59;100.00
22755;BME280;11544;42.020;23.094;2023-04-09T03:21:07;97382.50;;;7.52;100.00
22755;BME280;11544;42.020;23.094;2023-04-09T03:23:36;97388.81;;;7.39;100.00
22755;BME280;11544;42.020;23.094;2023-04-09T03:26:04;97394.94;;;6.88;100.00
22755;BME280;11544;42.020;23.094;2023-04-09T03:28:32;97398.16;;;7.03;100.00
22755;BME280;11544;42.020;23.094;2023-04-09T03:30:59;97393.22;;;7.34;100.00
22755;BME280;11544;42.020;23.094;2023-04-09T03:33:26;97392.31;;;7.36;100.00
22755;BME280;11544;42.020;23.094;2023-04-09T03:35:54;97399.16;;;6.95;100.00
22755;BME280;11544;42.020;23.094;2023-04-09T03:38:21;97400.41;;;7.19;100.00
22755;BME280;11544;42.020;23.094;2023-04-09T03:40:48;97390.13;;;7.15;100.00
22755;BME280;11544;42.020;23.094;2023-04-09T03:43:16;97398.06;;;7.07;100.00
22755;BME280;11544;42.020;23.094;2023-04-09T03:45:45;97401.34;;;7.17;100.00
22755;BME280;11544;42.020;23.094;2023-04-09T03:48:14;97407.59;;;7.50;100.00
22755;BME280;11544;42.020;23.094;2023-04-09T03:50:46;97408.41;;;7.54;100.00
22755;BME280;11544;42.020;23.094;2023-04-09T03:53:26;97406.50;;;7.62;100.00
22755;BME280;11544;42.020;23.094;2023-04-09T03:55:56;97408.88;;;7.29;100.00
22755;BME280;11544;42.020;23.094;2023-04-09T03:58:23;97412.91;;;7.86;100.00
22755;BME280;11544;42.020;23.094;2023-04-09T04:00:50;97416.03;;;7.61;99.46
22755;BME280;11544;42.020;23.094;2023-04-09T04:03:21;97415.69;;;7.78;99.91
22755;BME280;11544;42.020;23.094;2023-04-09T04:05:49;97426.81;;;6.93;100.00
22755;BME280;11544;42.020;23.094;2023-04-09T04:08:25;97420.22;;;7.24;100.00
22755;BME280;11544;42.020;23.094;2023-04-09T04:10:53;97428.78;;;6.79;100.00
22755;BME280;11544;42.020;23.094;2023-04-09T04:13:20;97425.06;;;7.42;100.00
22755;BME280;11544;42.020;23.094;2023-04-09T04:15:47;97428.16;;;7.16;100.00
22755;BME280;11544;42.020;23.094;2023-04-09T04:18:14;97430.22;;;6.97;100.00
22755;BME280;11544;42.020;23.094;2023-04-09T04:20:42;97433.16;;;7.25;100.00
22755;BME280;11544;42.020;23.094;2023-04-09T04:23:09;97427.66;;;7.42;100.00
22755;BME280;11544;42.020;23.094;2023-04-09T04:25:40;97442.81;;;7.63;100.00
22755;BME280;11544;42.020;23.094;2023-04-09T04:28:07;97426.78;;;7.85;98.73
22755;BME280;11544;42.020;23.094;2023-04-09T04:30:34;97439.03;;;7.78;97.20
22755;BME280;11544;42.020;23.094;2023-04-09T04:33:02;97442.94;;;7.56;99.36
22755;BME280;11544;42.020;23.094;2023-04-09T04:35:29;97432.91;;;7.82;98.52
22755;BME280;11544;42.020;23.094;2023-04-09T04:37:56;97434.38;;;7.94;97.01
22755;BME280;11544;42.020;23.094;2023-04-09T04:40:23;97444.56;;;7.61;97.15
22755;BME280;11544;42.020;23.094;2023-04-09T04:42:50;97445.41;;;7.62;98.16
22755;BME280;11544;42.020;23.094;2023-04-09T04:45:17;97449.34;;;7.39;98.52
22755;BME280;11544;42.020;23.094;2023-04-09T04:47:44;97451.19;;;7.33;99.90
22755;BME280;11544;42.020;23.094;2023-04-09T04:50:12;97457.28;;;7.75;99.64
22755;BME280;11544;42.020;23.094;2023-04-09T04:52:39;97456.69;;;7.61;99.72
22755;BME280;11544;42.020;23.094;2023-04-09T04:55:06;97456.72;;;7.58;99.23
22755;BME280;11544;42.020;23.094;2023-04-09T04:57:33;97456.63;;;7.64;100.00
22755;BME280;11544;42.020;23.094;2023-04-09T05:00:01;97464.72;;;7.92;100.00
22755;BME280;11544;42.020;23.094;2023-04-09T05:02:31;97463.03;;;7.90;100.00
22755;BME280;11544;42.020;23.094;2023-04-09T05:04:58;97461.75;;;8.09;100.00
22755;BME280;11544;42.020;23.094;2023-04-09T05:07:26;97459.22;;;8.06;100.00
22755;BME280;11544;42.020;23.094;2023-04-09T05:09:53;97463.88;;;7.90;99.68
22755;BME280;11544;42.020;23.094;2023-04-09T05:18:12;97440.81;;;8.17;98.25
22755;BME280;11544;42.020;23.094;2023-04-09T05:20:41;97443.75;;;8.01;97.74
22755;BME280;11544;42.020;23.094;2023-04-09T05:23:19;97452.56;;;7.94;97.12
22755;BME280;11544;42.020;23.094;2023-04-09T05:25:55;97444.47;;;8.48;94.81
22755;BME280;11544;42.020;23.094;2023-04-09T05:28:22;97462.09;;;8.33;95.85
22755;BME280;11544;42.020;23.094;2023-04-09T05:30:49;97448.31;;;8.69;94.87
22755;BME280;11544;42.020;23.094;2023-04-09T05:33:17;97447.69;;;8.58;91.61
22755;BME280;11544;42.020;23.094;2023-04-09T05:35:44;97451.53;;;8.42;93.20
22755;BME280;11544;42.020;23.094;2023-04-09T05:38:11;97451.03;;;8.24;94.30
22755;BME280;11544;42.020;23.094;2023-04-09T05:40:43;97451.66;;;8.73;94.04
22755;BME280;11544;42.020;23.094;2023-04-09T05:43:11;97451.34;;;9.21;91.48
22755;BME280;11544;42.020;23.094;2023-04-09T05:45:41;97450.91;;;9.04;91.68
22755;BME280;11544;42.020;23.094;2023-04-09T05:48:18;97446.91;;;9.56;89.78
22755;BME280;11544;42.020;23.094;2023-04-09T05:50:53;97446.94;;;8.90;88.20
22755;BME280;11544;42.020;23.094;2023-04-09T05:53:21;97450.59;;;8.82;91.83
22755;BME280;11544;42.020;23.094;2023-04-09T05:55:48;97452.22;;;8.86;94.00
22755;BME280;11544;42.020;23.094;2023-04-09T05:58:33;97459.25;;;8.81;94.60
22755;BME280;11544;42.020;23.094;2023-04-09T06:01:07;97459.81;;;9.61;92.77
22755;BME280;11544;42.020;23.094;2023-04-09T06:03:50;97453.88;;;9.56;88.88
22755;BME280;11544;42.020;23.094;2023-04-09T06:09:13;97436.13;;;10.57;85.37
22755;BME280;11544;42.020;23.094;2023-04-09T06:11:40;97428.81;;;10.42;81.89
22755;BME280;11544;42.020;23.094;2023-04-09T06:20:06;97433.66;;;10.53;83.29
22755;BME280;11544;42.020;23.094;2023-04-09T06:23:11;97434.41;;;10.85;82.96
22755;BME280;11544;42.020;23.094;2023-04-09T06:25:59;97424.78;;;12.09;77.00
22755;BME280;11544;42.020;23.094;2023-04-09T06:28:30;97423.31;;;12.02;72.52
22755;BME280;11544;42.020;23.094;2023-04-09T06:31:02;97444.56;;;11.44;74.94
22755;BME280;11544;42.020;23.094;2023-04-09T06:49:37;97429.94;;;11.38;75.40
22755;BME280;11544;42.020;23.094;2023-04-09T07:16:22;97411.19;;;12.23;77.00
22755;BME280;11544;42.020;23.094;2023-04-09T07:18:49;97402.94;;;12.98;72.27
22755;BME280;11544;42.020;23.094;2023-04-09T07:21:29;97401.22;;;13.18;73.83
22755;BME280;11544;42.020;23.094;2023-04-09T07:24:01;97407.25;;;13.20;70.97
22755;BME280;11544;42.020;23.094;2023-04-09T07:26:30;97405.47;;;13.20;69.01
22755;BME280;11544;42.020;23.094;2023-04-09T07:28:57;97402.88;;;13.20;70.40
22755;BME280;11544;42.020;23.094;2023-04-09T07:31:25;97403.31;;;13.71;67.01
22755;BME280;11544;42.020;23.094;2023-04-09T07:33:52;97396.31;;;13.51;64.90
22755;BME280;11544;42.020;23.094;2023-04-09T07:36:20;97406.16;;;11.95;70.26
22755;BME280;11544;42.020;23.094;2023-04-09T07:38:52;97399.16;;;13.46;70.83
22755;BME280;11544;42.020;23.094;2023-04-09T07:41:21;97399.66;;;13.94;67.12
22755;BME280;11544;42.020;23.094;2023-04-09T07:43:51;97402.63;;;13.47;65.55
22755;BME280;11544;42.020;23.094;2023-04-09T07:46:29;97401.63;;;12.88;66.55
22755;BME280;11544;42.020;23.094;2023-04-09T07:48:56;97400.06;;;13.25;64.66
22755;BME280;11544;42.020;23.094;2023-04-09T07:51:31;97408.88;;;12.81;65.70
22755;BME280;11544;42.020;23.094;2023-04-09T07:53:59;97408.00;;;13.44;66.32
22755;BME280;11544;42.020;23.094;2023-04-09T07:56:26;97420.19;;;13.23;65.67
22755;BME280;11544;42.020;23.094;2023-04-09T07:58:53;97414.66;;;12.23;68.20
22755;BME280;11544;42.020;23.094;2023-04-09T08:01:24;97422.63;;;12.20;70.13
22755;BME280;11544;42.020;23.094;2023-04-09T08:03:55;97416.16;;;12.07;69.44
22755;BME280;11544;42.020;23.094;2023-04-09T08:06:23;97417.34;;;12.44;69.32
22755;BME280;11544;42.020;23.094;2023-04-09T08:09:09;97416.63;;;12.62;68.49
22755;BME280;11544;42.020;23.094;2023-04-09T08:32:12;97415.56;;;12.44;68.31
22755;BME280;11544;42.020;23.094;2023-04-09T08:46:42;97416.72;;;12.37;67.19
22755;BME280;11544;42.020;23.094;2023-04-09T08:49:41;97417.84;;;12.32;66.84
22755;BME280;11544;42.020;23.094;2023-04-09T08:52:09;97410.47;;;12.41;66.41
22755;BME280;11544;42.020;23.094;2023-04-09T08:54:45;97412.59;;;12.54;65.83
22755;BME280;11544;42.020;23.094;2023-04-09T08:57:39;97410.09;;;13.56;71.61
22755;BME280;11544;42.020;23.094;2023-04-09T09:00:06;97412.22;;;12.63;66.36
22755;BME280;11544;42.020;23.094;2023-04-09T09:02:34;97405.28;;;13.25;67.66
22755;BME280;11544;42.020;23.094;2023-04-09T09:05:02;97399.97;;;13.86;64.73
22755;BME280;11544;42.020;23.094;2023-04-09T09:07:30;97396.47;;;13.87;63.61
22755;BME280;11544;42.020;23.094;2023-04-09T09:09:58;97398.28;;;13.85;61.86
22755;BME280;11544;42.020;23.094;2023-04-09T09:12:38;97397.72;;;13.79;62.38
22755;BME280;11544;42.020;23.094;2023-04-09T09:15:24;97394.41;;;13.36;60.32
22755;BME280;11544;42.020;23.094;2023-04-09T09:17:58;97391.84;;;13.73;62.69
22755;BME280;11544;42.020;23.094;2023-04-09T09:20:25;97381.00;;;13.81;61.97
22755;BME280;11544;42.020;23.094;2023-04-09T09:22:54;97381.50;;;14.27;63.78
22755;BME280;11544;42.020;23.094;2023-04-09T09:25:22;97380.19;;;14.36;60.77
22755;BME280;11544;42.020;23.094;2023-04-09T09:27:52;97376.75;;;14.16;60.71
22755;BME280;11544;42.020;23.094;2023-04-09T09:30:24;97374.50;;;14.09;60.28
22755;BME280;11544;42.020;23.094;2023-04-09T09:33:08;97374.13;;;14.16;61.60
22755;BME280;11544;42.020;23.094;2023-04-09T09:35:54;97373.22;;;14.17;59.98
22755;BME280;11544;42.020;23.094;2023-04-09T09:38:24;97375.28;;;13.73;59.66
22755;BME280;11544;42.020;23.094;2023-04-09T09:40:51;97375.38;;;14.46;60.86
22755;BME280;11544;42.020;23.094;2023-04-09T09:43:18;97375.66;;;14.39;60.93
22755;BME280;11544;42.020;23.094;2023-04-09T09:45:46;97374.66;;;14.42;59.53
22755;BME280;11544;42.020;23.094;2023-04-09T09:48:13;97369.03;;;14.13;58.61
22755;BME280;11544;42.020;23.094;2023-04-09T09:50:41;97367.25;;;14.50;59.14
22755;BME280;11544;42.020;23.094;2023-04-09T09:53:10;97366.78;;;14.78;58.93
22755;BME280;11544;42.020;23.094;2023-04-09T09:55:40;97366.63;;;14.64;56.35
22755;BME280;11544;42.020;23.094;2023-04-09T09:58:20;97368.28;;;15.35;56.51
22755;BME280;11544;42.020;23.094;2023-04-09T10:00:51;97360.69;;;14.78;55.36
22755;BME280;11544;42.020;23.094;2023-04-09T10:03:26;97354.72;;;15.60;55.92
22755;BME280;11544;42.020;23.094;2023-04-09T10:05:56;97356.66;;;15.23;55.80
22755;BME280;11544;42.020;23.094;2023-04-09T10:08:24;97359.63;;;14.65;55.27
22755;BME280;11544;42.020;23.094;2023-04-09T10:10:54;97345.16;;;15.08;55.86
22755;BME280;11544;42.020;23.094;2023-04-09T10:13:34;97351.19;;;14.93;54.65
22755;BME280;11544;42.020;23.094;2023-04-09T10:16:01;97349.78;;;15.20;54.25
22755;BME280;11544;42.020;23.094;2023-04-09T10:18:29;97348.19;;;14.83;54.46
22755;BME280;11544;42.020;23.094;2023-04-09T10:23:47;97342.38;;;14.59;52.56
22755;BME280;11544;42.020;23.094;2023-04-09T10:26:17;97347.78;;;15.08;52.51
22755;BME280;11544;42.020;23.094;2023-04-09T10:28:44;97341.06;;;15.20;52.39
22755;BME280;11544;42.020;23.094;2023-04-09T10:31:12;97338.16;;;15.75;52.94
22755;BME280;11544;42.020;23.094;2023-04-09T10:33:42;97336.13;;;15.96;52.01
22755;BME280;11544;42.020;23.094;2023-04-09T10:36:10;97342.16;;;14.64;52.59
22755;BME280;11544;42.020;23.094;2023-04-09T10:38:39;97338.06;;;14.75;51.55
22755;BME280;11544;42.020;23.094;2023-04-09T10:41:08;97336.38;;;14.38;52.02
22755;BME280;11544;42.020;23.094;2023-04-09T10:43:36;97335.34;;;13.49;54.19
22755;BME280;11544;42.020;23.094;2023-04-09T10:46:08;97323.72;;;14.82;55.42
22755;BME280;11544;42.020;23.094;2023-04-09T10:49:16;97324.25;;;14.89;53.22
22755;BME280;11544;42.020;23.094;2023-04-09T10:52:06;97316.22;;;15.43;52.89
22755;BME280;11544;42.020;23.094;2023-04-09T10:54:44;97318.38;;;14.67;51.53
22755;BME280;11544;42.020;23.094;2023-04-09T10:57:13;97315.09;;;15.14;52.28
22755;BME280;11544;42.020;23.094;2023-04-09T10:59:48;97309.66;;;15.34;50.56
22755;BME280;11544;42.020;23.094;2023-04-09T11:07:39;97302.41;;;16.04;53.09
22755;BME280;11544;42.020;23.094;2023-04-09T11:10:09;97298.28;;;15.67;51.76
22755;BME280;11544;42.020;23.094;2023-04-09T11:12:36;97299.06;;;16.01;50.44
22755;BME280;11544;42.020;23.094;2023-04-09T11:15:03;97302.66;;;14.84;52.79
22755;BME280;11544;42.020;23.094;2023-04-09T11:17:35;97300.66;;;14.72;53.65
22755;BME280;11544;42.020;23.094;2023-04-09T11:20:02;97290.63;;;15.31;53.41
22755;BME280;11544;42.020;23.094;2023-04-09T11:22:30;97301.13;;;15.31;52.43
22755;BME280;11544;42.020;23.094;2023-04-09T11:24:57;97292.94;;;14.69;52.99
22755;BME280;11544;42.020;23.094;2023-04-09T11:27:24;97296.50;;;14.68;53.51
22755;BME280;11544;42.020;23.094;2023-04-09T11:29:55;97293.47;;;14.58;54.49
22755;BME280;11544;42.020;23.094;2023-04-09T11:32:22;97295.63;;;14.85;56.45
22755;BME280;11544;42.020;23.094;2023-04-09T11:34:54;97290.34;;;14.50;57.70
22755;BME280;11544;42.020;23.094;2023-04-09T11:37:23;97290.84;;;14.22;58.26
22755;BME280;11544;42.020;23.094;2023-04-09T11:39:52;97282.75;;;14.63;59.69
22755;BME280;11544;42.020;23.094;2023-04-09T11:42:23;97281.56;;;14.86;59.33
22755;BME280;11544;42.020;23.094;2023-04-09T11:44:53;97290.81;;;14.93;59.08
22755;BME280;11544;42.020;23.094;2023-04-09T11:47:22;97287.06;;;14.64;61.56
22755;BME280;11544;42.020;23.094;2023-04-09T11:49:50;97293.25;;;14.26;61.79
22755;BME280;11544;42.020;23.094;2023-04-09T11:52:20;97281.56;;;14.51;60.64
22755;BME280;11544;42.020;23.094;2023-04-09T11:54:48;97288.19;;;13.87;60.63
22755;BME280;11544;42.020;23.094;2023-04-09T11:57:15;97289.94;;;13.67;64.35
22755;BME280;11544;42.020;23.094;2023-04-09T11:59:43;97277.56;;;13.52;68.55
22755;BME280;11544;42.020;23.094;2023-04-09T12:02:10;97287.28;;;13.50;68.08
22755;BME280;11544;42.020;23.094;2023-04-09T12:04:48;97284.00;;;13.83;69.10
22755;BME280;11544;42.020;23.094;2023-04-09T12:07:20;97282.25;;;13.45;71.60
22755;BME280;11544;42.020;23.094;2023-04-09T12:10:10;97281.03;;;13.71;70.41
22755;BME280;11544;42.020;23.094;2023-04-09T12:13:05;97268.72;;;13.15;69.06
22755;BME280;11544;42.020;23.094;2023-04-09T12:15:35;97268.72;;;13.54;70.15
22755;BME280;11544;42.020;23.094;2023-04-09T12:18:03;97272.59;;;12.87;70.27
22755;BME280;11544;42.020;23.094;2023-04-09T12:20:38;97276.50;;;12.98;68.72
22755;BME280;11544;42.020;23.094;2023-04-09T12:23:06;97276.03;;;12.88;70.00
22755;BME280;11544;42.020;23.094;2023-04-09T12:25:36;97264.63;;;13.09;69.00
22755;BME280;11544;42.020;23.094;2023-04-09T12:28:07;97266.94;;;12.97;69.96
22755;BME280;11544;42.020;23.094;2023-04-09T12:30:35;97268.19;;;12.67;69.56
22755;BME280;11544;42.020;23.094;2023-04-09T12:33:03;97260.78;;;12.98;70.33
22755;BME280;11544;42.020;23.094;2023-04-09T12:35:30;97267.13;;;12.92;70.21
22755;BME280;11544;42.020;23.094;2023-04-09T12:38:07;97261.16;;;13.09;71.11
22755;BME280;11544;42.020;23.094;2023-04-09T12:40:39;97262.31;;;12.83;70.95
22755;BME280;11544;42.020;23.094;2023-04-09T12:43:13;97264.47;;;13.12;70.38
22755;BME280;11544;42.020;23.094;2023-04-09T12:45:40;97256.53;;;13.34;67.81
22755;BME280;11544;42.020;23.094;2023-04-09T12:48:08;97257.00;;;13.24;67.41
22755;BME280;11544;42.020;23.094;2023-04-09T12:50:35;97250.44;;;13.34;65.57
22755;BME280;11544;42.020;23.094;2023-04-09T12:53:02;97245.31;;;12.73;65.56
22755;BME280;11544;42.020;23.094;2023-04-09T12:55:33;97245.19;;;13.15;66.08
22755;BME280;11544;42.020;23.094;2023-04-09T12:58:01;97246.66;;;13.02;66.15
22755;BME280;11544;42.020;23.094;2023-04-09T13:00:44;97241.66;;;13.16;67.07
22755;BME280;11544;42.020;23.094;2023-04-09T13:03:20;97242.16;;;13.24;70.90
22755;BME280;11544;42.020;23.094;2023-04-09T13:05:47;97244.66;;;13.46;69.50
22755;BME280;11544;42.020;23.094;2023-04-09T13:08:17;97242.28;;;13.02;70.28
22755;BME280;11544;42.020;23.094;2023-04-09T13:10:45;97234.22;;;13.26;74.17
22755;BME280;11544;42.020;23.094;2023-04-09T13:13:20;97244.06;;;13.21;74.41
22755;BME280;11544;42.020;23.094;2023-04-09T13:16:11;97243.47;;;12.95;79.00
22755;BME280;11544;42.020;23.094;2023-04-09T13:18:41;97236.69;;;12.70;81.88
22755;BME280;11544;42.020;23.094;2023-04-09T13:21:11;97240.06;;;12.73;83.32
22755;BME280;11544;42.020;23.094;2023-04-09T13:23:58;97241.25;;;12.65;84.21
22755;BME280;11544;42.020;23.094;2023-04-09T13:26:30;97246.53;;;12.23;86.63
22755;BME280;11544;42.020;23.094;2023-04-09T13:29:12;97245.56;;;12.05;86.77
22755;BME280;11544;42.020;23.094;2023-04-09T13:31:50;97250.34;;;12.36;89.36
22755;BME280;11544;42.020;23.094;2023-04-09T13:34:33;97249.03;;;12.46;89.11
22755;BME280;11544;42.020;23.094;2023-04-09T13:37:02;97233.63;;;12.61;87.57
22755;BME280;11544;42.020;23.094;2023-04-09T13:39:36;97232.97;;;12.76;84.94
22755;BME280;11544;42.020;23.094;2023-04-09T13:42:12;97232.06;;;12.36;84.13
22755;BME280;11544;42.020;23.094;2023-04-09T13:44:53;97235.56;;;12.15;87.10
22755;BME280;11544;42.020;23.094;2023-04-09T13:47:50;97234.84;;;12.73;88.18
22755;BME280;11544;42.020;23.094;2023-04-09T13:50:58;97235.00;;;12.49;87.42
22755;BME280;11544;42.020;23.094;2023-04-09T13:53:49;97235.81;;;12.90;88.39
22755;BME280;11544;42.020;23.094;2023-04-09T13:56:27;97226.50;;;12.64;84.36
22755;BME280;11544;42.020;23.094;2023-04-09T13:59:00;97224.53;;;12.69;83.23
22755;BME280;11544;42.020;23.094;2023-04-09T14:01:29;97230.88;;;12.43;85.92
22755;BME280;11544;42.020;23.094;2023-04-09T14:04:09;97234.72;;;12.35;87.49
22755;BME280;11544;42.020;23.094;2023-04-09T14:06:38;97232.63;;;12.84;92.13
22755;BME280;11544;42.020;23.094;2023-04-09T14:09:12;97225.84;;;12.59;90.80
22755;BME280;11544;42.020;23.094;2023-04-09T14:11:39;97229.03;;;12.66;91.22
22755;BME280;11544;42.020;23.094;2023-04-09T14:14:18;97228.00;;;12.70;92.37
22755;BME280;11544;42.020;23.094;2023-04-09T14:17:42;97233.88;;;12.75;96.47
22755;BME280;11544;42.020;23.094;2023-04-09T14:20:17;97228.97;;;12.67;92.14
22755;BME280;11544;42.020;23.094;2023-04-09T14:22:55;97234.66;;;12.36;91.39
22755;BME280;11544;42.020;23.094;2023-04-09T14:25:40;97231.22;;;12.36;91.44
22755;BME280;11544;42.020;23.094;2023-04-09T14:28:07;97235.72;;;12.32;90.58
22755;BME280;11544;42.020;23.094;2023-04-09T14:30:48;97227.34;;;12.24;90.50
22755;BME280;11544;42.020;23.094;2023-04-09T14:33:34;97226.69;;;12.39;89.03
22755;BME280;11544;42.020;23.094;2023-04-09T14:36:02;97221.44;;;12.19;88.61
22755;BME280;11544;42.020;23.094;2023-04-09T14:38:29;97218.72;;;12.22;88.85
22755;BME280;11544;42.020;23.094;2023-04-09T14:40:56;97218.78;;;12.41;91.98
22755;BME280;11544;42.020;23.094;2023-04-09T14:43:23;97227.03;;;12.32;90.14
22755;BME280;11544;42.020;23.094;2023-04-09T14:45:53;97223.19;;;12.40;88.51
22755;BME280;11544;42.020;23.094;2023-04-09T14:48:23;97226.00;;;12.36;89.13
22755;BME280;11544;42.020;23.094;2023-04-09T14:50:50;97222.50;;;11.93;89.06